sensor_id;sensor_type;location;lat;lon;timestamp;temperature;humidity
22337;DHT22;14992;50.844;4.418;2024-03-08T00:00:42;7.00;99.90
22337;DHT22;14992;50.844;4.418;2024-03-08T00:03:11;7.00;99.90
22337;DHT22;14992;50.844;4.418;2024-03-08T00:05:42;6.90;99.90
22337;DHT22;14992;50.844;4.418;2024-03-08T00:08:11;6.90;99.90
22337;DHT22;14992;50.844;4.418;2024-03-08T00:10:40;6.90;99.90
22337;DHT22;14992;50.844;4.418;2024-03-08T00:13:09;6.90;99.90
22337;DHT22;14992;50.844;4.418;2024-03-08T00:15:38;6.80;99.90
22337;DHT22;14992;50.844;4.418;2024-03-08T00:18:08;6.80;99.90
22337;DHT22;14992;50.844;4.418;2024-03-08T00:20:39;6.70;99.90
22337;DHT22;14992;50.844;4.418;2024-03-08T00:23:10;6.70;99.90
22337;DHT22;14992;50.844;4.418;2024-03-08T00:25:39;6.70;99.90
22337;DHT22;14992;50.844;4.418;2024-03-08T00:28:08;6.60;99.90
22337;DHT22;14992;50.844;4.418;2024-03-08T00:30:41;6.70;99.90
22337;DHT22;14992;50.844;4.418;2024-03-08T00:33:10;6.60;99.90
22337;DHT22;14992;50.844;4.418;2024-03-08T00:35:39;6.50;99.90
22337;DHT22;14992;50.844;4.418;2024-03-08T00:38:09;6.50;99.90
22337;DHT22;14992;50.844;4.418;2024-03-08T00:40:38;6.50;99.90
22337;DHT22;14992;50.844;4.418;2024-03-08T00:43:08;6.60;99.90
22337;DHT22;14992;50.844;4.418;2024-03-08T00:45:37;6.50;99.90
22337;DHT22;14992;50.844;4.418;2024-03-08T00:48:10;6.50;99.90
22337;DHT22;14992;50.844;4.418;2024-03-08T00:50:39;6.30;99.90
22337;DHT22;14992;50.844;4.418;2024-03-08T00:53:12;6.40;99.90
22337;DHT22;14992;50.844;4.418;2024-03-08T00:55:41;6.40;99.90
22337;DHT22;14992;50.844;4.418;2024-03-08T00:58:10;6.40;99.90
22337;DHT22;14992;50.844;4.418;2024-03-08T01:00:39;6.30;99.90
22337;DHT22;14992;50.844;4.418;2024-03-08T01:03:08;6.40;99.90
22337;DHT22;14992;50.844;4.418;2024-03-08T01:05:38;6.40;99.90
22337;DHT22;14992;50.844;4.418;2024-03-08T01:08:07;6.40;99.90
22337;DHT22;14992;50.844;4.418;2024-03-08T01:10:40;6.40;99.90
22337;DHT22;14992;50.844;4.418;2024-03-08T01:13:09;6.40;99.90
22337;DHT22;14992;50.844;4.418;2024-03-08T01:15:38;6.30;99.90
22337;DHT22;14992;50.844;4.418;2024-03-08T01:18:09;6.30;99.90
22337;DHT22;14992;50.844;4.418;2024-03-08T01:20:38;6.30;99.90
22337;DHT22;14992;50.844;4.418;2024-03-08T01:23:09;6.30;99.90
22337;DHT22;14992;50.844;4.418;2024-03-08T01:25:39;6.30;99.90
22337;DHT22;14992;50.844;4.418;2024-03-08T01:28:09;6.30;99.90
22337;DHT22;14992;50.844;4.418;2024-03-08T01:30:37;6.40;99.90
22337;DHT22;14992;50.844;4.418;2024-03-08T01:33:06;6.30;99.90
22337;DHT22;14992;50.844;4.418;2024-03-08T01:35:35;6.20;99.90
22337;DHT22;14992;50.844;4.418;2024-03-08T01:38:04;6.20;99.90
22337;DHT22;14992;50.844;4.418;2024-03-08T01:40:33;6.00;99.90
22337;DHT22;14992;50.844;4.418;2024-03-08T01:43:19;6.10;99.90
22337;DHT22;14992;50.844;4.418;2024-03-08T01:45:48;6.10;99.90
22337;DHT22;14992;50.844;4.418;2024-03-08T01:48:18;6.00;99.90
22337;DHT22;14992;50.844;4.418;2024-03-08T01:50:50;6.10;99.90
22337;DHT22;14992;50.844;4.418;2024-03-08T01:53:20;6.00;99.90
22337;DHT22;14992;50.844;4.418;2024-03-08T01:55:51;6.00;99.90
22337;DHT22;14992;50.844;4.418;2024-03-08T01:58:24;6.10;99.90
22337;DHT22;14992;50.844;4.418;2024-03-08T02:00:53;6.00;99.90
22337;DHT22;14992;50.844;4.418;2024-03-08T02:03:24;5.90;99.90
22337;DHT22;14992;50.844;4.418;2024-03-08T02:05:53;5.90;99.90
22337;DHT22;14992;50.844;4.418;2024-03-08T02:08:22;5.90;99.90
22337;DHT22;14992;50.844;4.418;2024-03-08T02:10:51;5.90;99.90
22337;DHT22;14992;50.844;4.418;2024-03-08T02:13:20;6.00;99.90
22337;DHT22;14992;50.844;4.418;2024-03-08T02:15:54;6.00;99.90
22337;DHT22;14992;50.844;4.418;2024-03-08T02:18:24;6.10;99.90
22337;DHT22;14992;50.844;4.418;2024-03-08T02:20:55;6.10;99.90
22337;DHT22;14992;50.844;4.418;2024-03-08T02:23:25;6.00;99.90
22337;DHT22;14992;50.844;4.418;2024-03-08T02:25:55;5.90;99.90
22337;DHT22;14992;50.844;4.418;2024-03-08T02:28:25;5.90;99.90
22337;DHT22;14992;50.844;4.418;2024-03-08T02:30:54;5.80;99.90
22337;DHT22;14992;50.844;4.418;2024-03-08T02:33:25;5.80;99.90
22337;DHT22;14992;50.844;4.418;2024-03-08T02:35:56;5.80;99.90
22337;DHT22;14992;50.844;4.418;2024-03-08T02:38:25;5.80;99.90
22337;DHT22;14992;50.844;4.418;2024-03-08T02:40:55;5.70;99.90
22337;DHT22;14992;50.844;4.418;2024-03-08T02:43:24;5.60;99.90
22337;DHT22;14992;50.844;4.418;2024-03-08T02:45:53;5.60;99.90
22337;DHT22;14992;50.844;4.418;2024-03-08T02:48:23;5.70;99.90
22337;DHT22;14992;50.844;4.418;2024-03-08T02:50:52;5.70;99.90
22337;DHT22;14992;50.844;4.418;2024-03-08T02:53:22;5.70;99.90
22337;DHT22;14992;50.844;4.418;2024-03-08T02:55:52;5.60;99.90
22337;DHT22;14992;50.844;4.418;2024-03-08T02:58:22;5.70;99.90
22337;DHT22;14992;50.844;4.418;2024-03-08T03:00:52;5.60;99.90
22337;DHT22;14992;50.844;4.418;2024-03-08T03:03:20;5.60;99.90
22337;DHT22;14992;50.844;4.418;2024-03-08T03:05:49;5.60;99.90
22337;DHT22;14992;50.844;4.418;2024-03-08T03:08:19;5.50;99.90
22337;DHT22;14992;50.844;4.418;2024-03-08T03:10:49;5.50;99.90
22337;DHT22;14992;50.844;4.418;2024-03-08T03:13:18;5.40;99.90
22337;DHT22;14992;50.844;4.418;2024-03-08T03:15:47;5.40;99.90
22337;DHT22;14992;50.844;4.418;2024-03-08T03:18:16;5.40;99.90
22337;DHT22;14992;50.844;4.418;2024-03-08T03:20:49;5.50;99.90
22337;DHT22;14992;50.844;4.418;2024-03-08T03:23:18;5.50;99.90
22337;DHT22;14992;50.844;4.418;2024-03-08T03:25:50;5.50;99.90
22337;DHT22;14992;50.844;4.418;2024-03-08T03:28:19;5.50;99.90
22337;DHT22;14992;50.844;4.418;2024-03-08T03:30:51;5.50;99.90
22337;DHT22;14992;50.844;4.418;2024-03-08T03:33:20;5.50;99.90
22337;DHT22;14992;50.844;4.418;2024-03-08T03:35:50;5.50;99.90
22337;DHT22;14992;50.844;4.418;2024-03-08T03:38:19;5.40;99.90
22337;DHT22;14992;50.844;4.418;2024-03-08T03:40:52;5.30;99.90
22337;DHT22;14992;50.844;4.418;2024-03-08T03:43:24;5.30;99.90
22337;DHT22;14992;50.844;4.418;2024-03-08T03:45:53;5.30;99.90
22337;DHT22;14992;50.844;4.418;2024-03-08T03:48:23;5.30;99.90
22337;DHT22;14992;50.844;4.418;2024-03-08T03:50:52;5.20;99.90
22337;DHT22;14992;50.844;4.418;2024-03-08T03:53:21;5.20;99.90
22337;DHT22;14992;50.844;4.418;2024-03-08T03:55:51;5.20;99.90
22337;DHT22;14992;50.844;4.418;2024-03-08T03:58:20;5.20;99.90
22337;DHT22;14992;50.844;4.418;2024-03-08T04:00:50;5.10;99.90
22337;DHT22;14992;50.844;4.418;2024-03-08T04:03:19;5.10;99.90
22337;DHT22;14992;50.844;4.418;2024-03-08T04:05:49;5.10;99.90
22337;DHT22;14992;50.844;4.418;2024-03-08T04:08:18;5.20;99.90
22337;DHT22;14992;50.844;4.418;2024-03-08T04:10:47;5.10;99.90
22337;DHT22;14992;50.844;4.418;2024-03-08T04:13:17;5.00;99.90
22337;DHT22;14992;50.844;4.418;2024-03-08T04:15:48;5.00;99.90
22337;DHT22;14992;50.844;4.418;2024-03-08T04:18:17;5.10;99.90
22337;DHT22;14992;50.844;4.418;2024-03-08T04:20:46;5.00;99.90
22337;DHT22;14992;50.844;4.418;2024-03-08T04:23:15;4.90;99.90
22337;DHT22;14992;50.844;4.418;2024-03-08T04:25:45;4.90;99.90
22337;DHT22;14992;50.844;4.418;2024-03-08T04:28:14;4.80;99.90
22337;DHT22;14992;50.844;4.418;2024-03-08T04:30:46;4.80;99.90
22337;DHT22;14992;50.844;4.418;2024-03-08T04:33:15;4.80;99.90
22337;DHT22;14992;50.844;4.418;2024-03-08T04:35:46;4.80;99.90
22337;DHT22;14992;50.844;4.418;2024-03-08T04:38:15;4.80;99.90
22337;DHT22;14992;50.844;4.418;2024-03-08T04:40:44;4.90;99.90
22337;DHT22;14992;50.844;4.418;2024-03-08T04:43:13;4.90;99.90
22337;DHT22;14992;50.844;4.418;2024-03-08T04:45:42;4.80;99.90
22337;DHT22;14992;50.844;4.418;2024-03-08T04:48:13;4.80;99.90
22337;DHT22;14992;50.844;4.418;2024-03-08T04:50:42;4.70;99.90
22337;DHT22;14992;50.844;4.418;2024-03-08T04:53:12;4.70;99.90
22337;DHT22;14992;50.844;4.418;2024-03-08T04:55:41;4.60;99.90
22337;DHT22;14992;50.844;4.418;2024-03-08T04:58:10;4.70;99.90
22337;DHT22;14992;50.844;4.418;2024-03-08T05:00:39;4.80;99.90
22337;DHT22;14992;50.844;4.418;2024-03-08T05:03:08;4.80;99.90
22337;DHT22;14992;50.844;4.418;2024-03-08T05:05:38;4.70;99.90
22337;DHT22;14992;50.844;4.418;2024-03-08T05:08:07;4.80;99.90
22337;DHT22;14992;50.844;4.418;2024-03-08T05:10:36;4.80;99.90
22337;DHT22;14992;50.844;4.418;2024-03-08T05:13:05;4.80;99.90
22337;DHT22;14992;50.844;4.418;2024-03-08T05:15:34;4.80;99.90
22337;DHT22;14992;50.844;4.418;2024-03-08T05:18:04;4.70;99.90
22337;DHT22;14992;50.844;4.418;2024-03-08T05:20:33;4.60;99.90
22337;DHT22;14992;50.844;4.418;2024-03-08T05:23:06;4.60;99.90
22337;DHT22;14992;50.844;4.418;2024-03-08T05:25:35;4.70;99.90
22337;DHT22;14992;50.844;4.418;2024-03-08T05:28:05;4.60;99.90
22337;DHT22;14992;50.844;4.418;2024-03-08T05:30:34;4.60;99.90
22337;DHT22;14992;50.844;4.418;2024-03-08T05:33:04;4.70;99.90
22337;DHT22;14992;50.844;4.418;2024-03-08T05:35:33;4.70;99.90
22337;DHT22;14992;50.844;4.418;2024-03-08T05:38:03;4.70;99.90
22337;DHT22;14992;50.844;4.418;2024-03-08T05:40:34;4.70;99.90
22337;DHT22;14992;50.844;4.418;2024-03-08T05:43:03;4.70;99.90
22337;DHT22;14992;50.844;4.418;2024-03-08T05:45:32;4.70;99.90
22337;DHT22;14992;50.844;4.418;2024-03-08T05:48:01;4.70;99.90
22337;DHT22;14992;50.844;4.418;2024-03-08T05:50:31;4.60;99.90
22337;DHT22;14992;50.844;4.418;2024-03-08T05:53:00;4.70;99.90
22337;DHT22;14992;50.844;4.418;2024-03-08T05:55:29;4.80;99.90
22337;DHT22;14992;50.844;4.418;2024-03-08T05:57:59;4.80;99.90
22337;DHT22;14992;50.844;4.418;2024-03-08T06:00:28;4.70;99.90
22337;DHT22;14992;50.844;4.418;2024-03-08T06:02:58;4.70;99.90
22337;DHT22;14992;50.844;4.418;2024-03-08T06:05:28;4.70;99.90
22337;DHT22;14992;50.844;4.418;2024-03-08T06:07:57;4.60;99.90
22337;DHT22;14992;50.844;4.418;2024-03-08T06:10:26;4.60;99.90
22337;DHT22;14992;50.844;4.418;2024-03-08T06:12:55;4.60;99.90
22337;DHT22;14992;50.844;4.418;2024-03-08T06:15:25;4.60;99.90
22337;DHT22;14992;50.844;4.418;2024-03-08T06:17:54;4.60;99.90
22337;DHT22;14992;50.844;4.418;2024-03-08T06:20:23;4.50;99.90
22337;DHT22;14992;50.844;4.418;2024-03-08T06:22:53;4.40;99.90
22337;DHT22;14992;50.844;4.418;2024-03-08T06:25:22;4.40;99.90
22337;DHT22;14992;50.844;4.418;2024-03-08T06:27:51;4.40;99.90
22337;DHT22;14992;50.844;4.418;2024-03-08T06:30:21;4.50;99.90
22337;DHT22;14992;50.844;4.418;2024-03-08T06:32:52;4.60;99.90
22337;DHT22;14992;50.844;4.418;2024-03-08T06:35:21;4.50;99.90
22337;DHT22;14992;50.844;4.418;2024-03-08T06:37:50;4.50;99.90
22337;DHT22;14992;50.844;4.418;2024-03-08T06:40:19;4.50;99.90
22337;DHT22;14992;50.844;4.418;2024-03-08T06:42:48;4.50;99.90
22337;DHT22;14992;50.844;4.418;2024-03-08T06:45:19;4.50;99.90
22337;DHT22;14992;50.844;4.418;2024-03-08T06:47:49;4.50;99.90
22337;DHT22;14992;50.844;4.418;2024-03-08T06:50:19;4.60;99.90
22337;DHT22;14992;50.844;4.418;2024-03-08T06:52:48;4.70;99.90
22337;DHT22;14992;50.844;4.418;2024-03-08T06:55:21;4.70;99.90
22337;DHT22;14992;50.844;4.418;2024-03-08T06:57:50;4.90;99.90
22337;DHT22;14992;50.844;4.418;2024-03-08T07:00:19;4.80;99.90
22337;DHT22;14992;50.844;4.418;2024-03-08T07:02:48;4.80;99.90
22337;DHT22;14992;50.844;4.418;2024-03-08T07:05:19;4.80;99.90
22337;DHT22;14992;50.844;4.418;2024-03-08T07:07:48;4.70;99.90
22337;DHT22;14992;50.844;4.418;2024-03-08T07:10:17;4.70;99.90
22337;DHT22;14992;50.844;4.418;2024-03-08T07:12:47;4.70;99.90
22337;DHT22;14992;50.844;4.418;2024-03-08T07:15:16;4.70;99.90
22337;DHT22;14992;50.844;4.418;2024-03-08T07:17:47;4.70;99.90
22337;DHT22;14992;50.844;4.418;2024-03-08T07:20:17;4.70;99.90
22337;DHT22;14992;50.844;4.418;2024-03-08T07:22:48;4.70;99.90
22337;DHT22;14992;50.844;4.418;2024-03-08T07:25:19;4.60;99.90
22337;DHT22;14992;50.844;4.418;2024-03-08T07:27:52;4.60;99.90
22337;DHT22;14992;50.844;4.418;2024-03-08T07:30:23;4.70;99.90
22337;DHT22;14992;50.844;4.418;2024-03-08T07:33:11;4.80;99.90
22337;DHT22;14992;50.844;4.418;2024-03-08T07:35:41;4.90;99.90
22337;DHT22;14992;50.844;4.418;2024-03-08T07:38:13;4.90;99.90
22337;DHT22;14992;50.844;4.418;2024-03-08T07:40:44;5.00;99.90
22337;DHT22;14992;50.844;4.418;2024-03-08T07:43:13;5.10;99.90
22337;DHT22;14992;50.844;4.418;2024-03-08T07:45:42;5.10;99.90
22337;DHT22;14992;50.844;4.418;2024-03-08T07:48:11;5.20;99.90
22337;DHT22;14992;50.844;4.418;2024-03-08T07:50:41;5.20;99.90
22337;DHT22;14992;50.844;4.418;2024-03-08T07:53:10;5.20;99.90
22337;DHT22;14992;50.844;4.418;2024-03-08T07:55:40;5.30;99.90
22337;DHT22;14992;50.844;4.418;2024-03-08T07:58:10;5.40;99.90
22337;DHT22;14992;50.844;4.418;2024-03-08T08:00:41;5.40;99.90
22337;DHT22;14992;50.844;4.418;2024-03-08T08:03:11;5.40;99.90
22337;DHT22;14992;50.844;4.418;2024-03-08T08:05:40;5.30;99.90
22337;DHT22;14992;50.844;4.418;2024-03-08T08:08:09;5.30;99.90
22337;DHT22;14992;50.844;4.418;2024-03-08T08:10:40;5.40;99.90
22337;DHT22;14992;50.844;4.418;2024-03-08T08:13:10;5.50;99.90
22337;DHT22;14992;50.844;4.418;2024-03-08T08:15:39;5.60;99.90
22337;DHT22;14992;50.844;4.418;2024-03-08T08:18:07;5.70;99.90
22337;DHT22;14992;50.844;4.418;2024-03-08T08:20:37;5.80;99.90
22337;DHT22;14992;50.844;4.418;2024-03-08T08:23:06;5.80;99.90
22337;DHT22;14992;50.844;4.418;2024-03-08T08:25:36;5.90;99.90
22337;DHT22;14992;50.844;4.418;2024-03-08T08:28:07;5.90;99.90
22337;DHT22;14992;50.844;4.418;2024-03-08T08:30:37;6.00;99.90
22337;DHT22;14992;50.844;4.418;2024-03-08T08:33:06;6.00;99.90
22337;DHT22;14992;50.844;4.418;2024-03-08T08:35:36;6.00;99.90
22337;DHT22;14992;50.844;4.418;2024-03-08T08:38:05;6.10;99.90
22337;DHT22;14992;50.844;4.418;2024-03-08T08:40:35;6.20;99.90
22337;DHT22;14992;50.844;4.418;2024-03-08T08:43:04;6.30;99.90
22337;DHT22;14992;50.844;4.418;2024-03-08T08:45:36;6.50;99.90
22337;DHT22;14992;50.844;4.418;2024-03-08T08:48:06;6.60;99.90
22337;DHT22;14992;50.844;4.418;2024-03-08T08:50:36;6.70;99.90
22337;DHT22;14992;50.844;4.418;2024-03-08T08:53:05;6.80;99.90
22337;DHT22;14992;50.844;4.418;2024-03-08T08:55:35;6.80;99.90
22337;DHT22;14992;50.844;4.418;2024-03-08T08:58:04;6.80;99.90
22337;DHT22;14992;50.844;4.418;2024-03-08T09:00:36;6.80;99.90
22337;DHT22;14992;50.844;4.418;2024-03-08T09:03:05;6.90;99.90
22337;DHT22;14992;50.844;4.418;2024-03-08T09:05:35;6.80;99.90
22337;DHT22;14992;50.844;4.418;2024-03-08T09:08:06;6.90;99.90
22337;DHT22;14992;50.844;4.418;2024-03-08T09:10:37;7.00;99.90
22337;DHT22;14992;50.844;4.418;2024-03-08T09:13:06;7.00;99.90
22337;DHT22;14992;50.844;4.418;2024-03-08T09:15:46;7.00;99.90
22337;DHT22;14992;50.844;4.418;2024-03-08T09:18:18;7.20;99.90
22337;DHT22;14992;50.844;4.418;2024-03-08T09:20:47;7.10;99.90
22337;DHT22;14992;50.844;4.418;2024-03-08T09:23:19;7.30;99.90
22337;DHT22;14992;50.844;4.418;2024-03-08T09:25:48;7.40;99.90
22337;DHT22;14992;50.844;4.418;2024-03-08T09:28:17;7.70;99.90
22337;DHT22;14992;50.844;4.418;2024-03-08T09:30:49;7.90;99.90
22337;DHT22;14992;50.844;4.418;2024-03-08T09:33:26;7.90;99.90
22337;DHT22;14992;50.844;4.418;2024-03-08T09:35:56;8.20;99.90
22337;DHT22;14992;50.844;4.418;2024-03-08T09:38:30;8.20;99.90
22337;DHT22;14992;50.844;4.418;2024-03-08T09:40:59;8.10;99.90
22337;DHT22;14992;50.844;4.418;2024-03-08T09:43:29;8.00;99.90
22337;DHT22;14992;50.844;4.418;2024-03-08T09:45:59;8.10;99.90
22337;DHT22;14992;50.844;4.418;2024-03-08T09:48:29;8.10;99.90
22337;DHT22;14992;50.844;4.418;2024-03-08T09:50:58;8.10;99.90
22337;DHT22;14992;50.844;4.418;2024-03-08T09:53:28;8.20;99.90
22337;DHT22;14992;50.844;4.418;2024-03-08T09:55:57;8.30;99.90
22337;DHT22;14992;50.844;4.418;2024-03-08T09:58:27;8.40;99.90
22337;DHT22;14992;50.844;4.418;2024-03-08T10:01:18;8.60;99.90
22337;DHT22;14992;50.844;4.418;2024-03-08T10:03:47;8.80;99.80
22337;DHT22;14992;50.844;4.418;2024-03-08T10:06:22;9.00;99.20
22337;DHT22;14992;50.844;4.418;2024-03-08T10:08:52;9.10;98.30
22337;DHT22;14992;50.844;4.418;2024-03-08T10:11:21;9.00;97.80
22337;DHT22;14992;50.844;4.418;2024-03-08T10:13:50;9.00;97.70
22337;DHT22;14992;50.844;4.418;2024-03-08T10:16:21;9.00;97.30
22337;DHT22;14992;50.844;4.418;2024-03-08T10:18:51;8.80;97.20
22337;DHT22;14992;50.844;4.418;2024-03-08T10:21:21;8.70;97.80
22337;DHT22;14992;50.844;4.418;2024-03-08T10:23:50;8.70;98.30
22337;DHT22;14992;50.844;4.418;2024-03-08T10:26:20;8.80;98.20
22337;DHT22;14992;50.844;4.418;2024-03-08T10:28:50;9.00;98.10
22337;DHT22;14992;50.844;4.418;2024-03-08T10:31:21;9.20;97.50
22337;DHT22;14992;50.844;4.418;2024-03-08T10:33:50;9.20;96.60
22337;DHT22;14992;50.844;4.418;2024-03-08T10:36:19;9.20;96.50
22337;DHT22;14992;50.844;4.418;2024-03-08T10:38:51;9.20;96.50
22337;DHT22;14992;50.844;4.418;2024-03-08T10:41:24;9.30;96.30
22337;DHT22;14992;50.844;4.418;2024-03-08T10:44:10;9.30;96.30
22337;DHT22;14992;50.844;4.418;2024-03-08T10:46:52;9.40;96.50
22337;DHT22;14992;50.844;4.418;2024-03-08T10:49:31;9.50;96.00
22337;DHT22;14992;50.844;4.418;2024-03-08T10:52:03;9.40;95.50
22337;DHT22;14992;50.844;4.418;2024-03-08T10:54:34;9.60;95.60
22337;DHT22;14992;50.844;4.418;2024-03-08T10:57:12;9.70;95.30
22337;DHT22;14992;50.844;4.418;2024-03-08T10:59:43;9.70;95.00
22337;DHT22;14992;50.844;4.418;2024-03-08T11:02:13;9.70;95.00
22337;DHT22;14992;50.844;4.418;2024-03-08T11:04:46;9.80;95.00
22337;DHT22;14992;50.844;4.418;2024-03-08T11:07:17;10.00;94.90
22337;DHT22;14992;50.844;4.418;2024-03-08T11:09:48;10.20;94.20
22337;DHT22;14992;50.844;4.418;2024-03-08T11:12:24;10.10;93.80
22337;DHT22;14992;50.844;4.418;2024-03-08T11:14:59;10.10;94.20
22337;DHT22;14992;50.844;4.418;2024-03-08T11:17:45;10.20;94.00
22337;DHT22;14992;50.844;4.418;2024-03-08T11:20:16;10.20;93.80
22337;DHT22;14992;50.844;4.418;2024-03-08T11:22:49;10.20;93.80
22337;DHT22;14992;50.844;4.418;2024-03-08T11:25:36;10.30;93.90
22337;DHT22;14992;50.844;4.418;2024-03-08T11:28:10;10.40;93.30
22337;DHT22;14992;50.844;4.418;2024-03-08T11:30:45;10.50;93.20
22337;DHT22;14992;50.844;4.418;2024-03-08T11:33:17;10.40;93.10
22337;DHT22;14992;50.844;4.418;2024-03-08T11:35:46;10.50;93.30
22337;DHT22;14992;50.844;4.418;2024-03-08T11:38:16;10.70;93.20
22337;DHT22;14992;50.844;4.418;2024-03-08T11:40:46;10.80;92.30
22337;DHT22;14992;50.844;4.418;2024-03-08T11:43:18;11.10;92.10
22337;DHT22;14992;50.844;4.418;2024-03-08T11:45:47;11.20;91.50
22337;DHT22;14992;50.844;4.418;2024-03-08T11:48:18;11.10;91.40
22337;DHT22;14992;50.844;4.418;2024-03-08T11:50:59;10.90;91.10
22337;DHT22;14992;50.844;4.418;2024-03-08T11:53:29;10.90;91.50
22337;DHT22;14992;50.844;4.418;2024-03-08T11:56:06;11.00;92.00
22337;DHT22;14992;50.844;4.418;2024-03-08T11:58:36;11.10;91.50
22337;DHT22;14992;50.844;4.418;2024-03-08T12:01:06;11.10;91.20
22337;DHT22;14992;50.844;4.418;2024-03-08T12:03:38;11.10;91.40
22337;DHT22;14992;50.844;4.418;2024-03-08T12:06:10;11.20;91.30
22337;DHT22;14992;50.844;4.418;2024-03-08T12:08:41;11.20;90.90
22337;DHT22;14992;50.844;4.418;2024-03-08T12:11:10;11.30;91.10
22337;DHT22;14992;50.844;4.418;2024-03-08T12:13:41;11.40;90.80
22337;DHT22;14992;50.844;4.418;2024-03-08T12:16:14;11.40;90.50
22337;DHT22;14992;50.844;4.418;2024-03-08T12:18:44;11.40;90.70
22337;DHT22;14992;50.844;4.418;2024-03-08T12:21:14;11.50;90.40
22337;DHT22;14992;50.844;4.418;2024-03-08T12:23:47;11.60;90.20
22337;DHT22;14992;50.844;4.418;2024-03-08T12:26:24;11.60;89.60
22337;DHT22;14992;50.844;4.418;2024-03-08T12:28:53;11.50;89.60
22337;DHT22;14992;50.844;4.418;2024-03-08T12:31:23;11.60;90.10
22337;DHT22;14992;50.844;4.418;2024-03-08T12:34:00;11.60;88.50
22337;DHT22;14992;50.844;4.418;2024-03-08T12:36:31;11.60;88.40
22337;DHT22;14992;50.844;4.418;2024-03-08T12:39:00;11.70;88.60
22337;DHT22;14992;50.844;4.418;2024-03-08T12:41:31;11.80;88.60
22337;DHT22;14992;50.844;4.418;2024-03-08T12:44:00;12.00;87.90
22337;DHT22;14992;50.844;4.418;2024-03-08T12:46:29;12.10;86.80
22337;DHT22;14992;50.844;4.418;2024-03-08T12:49:01;12.20;86.20
22337;DHT22;14992;50.844;4.418;2024-03-08T12:51:32;12.10;86.00
22337;DHT22;14992;50.844;4.418;2024-03-08T12:54:01;11.90;86.70
22337;DHT22;14992;50.844;4.418;2024-03-08T12:56:35;11.90;87.40
22337;DHT22;14992;50.844;4.418;2024-03-08T12:59:05;12.00;87.60
22337;DHT22;14992;50.844;4.418;2024-03-08T13:01:35;12.00;86.90
22337;DHT22;14992;50.844;4.418;2024-03-08T13:04:06;11.90;87.30
22337;DHT22;14992;50.844;4.418;2024-03-08T13:06:39;12.10;88.90
22337;DHT22;14992;50.844;4.418;2024-03-08T13:09:08;12.20;87.40
22337;DHT22;14992;50.844;4.418;2024-03-08T13:11:37;12.40;86.50
22337;DHT22;14992;50.844;4.418;2024-03-08T13:14:06;12.20;85.70
22337;DHT22;14992;50.844;4.418;2024-03-08T13:16:35;12.30;86.60
22337;DHT22;14992;50.844;4.418;2024-03-08T13:19:06;12.40;86.00
22337;DHT22;14992;50.844;4.418;2024-03-08T13:21:35;12.30;86.10
22337;DHT22;14992;50.844;4.418;2024-03-08T13:24:04;12.30;86.30
22337;DHT22;14992;50.844;4.418;2024-03-08T13:26:33;12.40;86.40
22337;DHT22;14992;50.844;4.418;2024-03-08T13:29:02;12.50;85.10
22337;DHT22;14992;50.844;4.418;2024-03-08T13:31:34;12.50;84.90
22337;DHT22;14992;50.844;4.418;2024-03-08T13:34:05;12.50;85.20
22337;DHT22;14992;50.844;4.418;2024-03-08T13:36:35;12.60;86.00
22337;DHT22;14992;50.844;4.418;2024-03-08T13:39:10;12.70;85.20
22337;DHT22;14992;50.844;4.418;2024-03-08T13:41:43;12.90;84.30
22337;DHT22;14992;50.844;4.418;2024-03-08T13:44:13;13.10;83.30
22337;DHT22;14992;50.844;4.418;2024-03-08T13:46:42;13.10;82.70
22337;DHT22;14992;50.844;4.418;2024-03-08T13:49:12;13.20;81.60
22337;DHT22;14992;50.844;4.418;2024-03-08T13:51:41;13.00;81.40
22337;DHT22;14992;50.844;4.418;2024-03-08T13:54:10;13.00;82.40
22337;DHT22;14992;50.844;4.418;2024-03-08T13:56:39;12.90;83.00
22337;DHT22;14992;50.844;4.418;2024-03-08T13:59:08;12.90;82.80
22337;DHT22;14992;50.844;4.418;2024-03-08T14:01:37;13.00;82.70
22337;DHT22;14992;50.844;4.418;2024-03-08T14:04:06;13.00;81.80
22337;DHT22;14992;50.844;4.418;2024-03-08T14:06:37;13.00;82.10
22337;DHT22;14992;50.844;4.418;2024-03-08T14:09:06;13.00;82.60
22337;DHT22;14992;50.844;4.418;2024-03-08T14:11:35;13.00;81.60
22337;DHT22;14992;50.844;4.418;2024-03-08T14:14:05;13.10;81.70
22337;DHT22;14992;50.844;4.418;2024-03-08T14:16:34;13.00;81.60
22337;DHT22;14992;50.844;4.418;2024-03-08T14:19:04;13.00;81.70
22337;DHT22;14992;50.844;4.418;2024-03-08T14:21:34;13.00;81.90
22337;DHT22;14992;50.844;4.418;2024-03-08T14:24:06;12.90;82.00
22337;DHT22;14992;50.844;4.418;2024-03-08T14:26:35;12.90;82.50
22337;DHT22;14992;50.844;4.418;2024-03-08T14:29:06;13.00;82.90
22337;DHT22;14992;50.844;4.418;2024-03-08T14:31:34;13.10;82.50
22337;DHT22;14992;50.844;4.418;2024-03-08T14:34:04;13.10;81.80
22337;DHT22;14992;50.844;4.418;2024-03-08T14:36:34;13.10;81.90
22337;DHT22;14992;50.844;4.418;2024-03-08T14:39:04;13.20;81.80
22337;DHT22;14992;50.844;4.418;2024-03-08T14:41:34;13.30;80.60
22337;DHT22;14992;50.844;4.418;2024-03-08T14:44:04;13.30;80.80
22337;DHT22;14992;50.844;4.418;2024-03-08T14:46:33;13.10;80.80
22337;DHT22;14992;50.844;4.418;2024-03-08T14:49:02;13.20;81.10
22337;DHT22;14992;50.844;4.418;2024-03-08T14:51:31;13.20;80.70
22337;DHT22;14992;50.844;4.418;2024-03-08T14:54:01;13.20;80.50
22337;DHT22;14992;50.844;4.418;2024-03-08T14:56:30;13.20;80.80
22337;DHT22;14992;50.844;4.418;2024-03-08T14:59:00;13.20;80.80
22337;DHT22;14992;50.844;4.418;2024-03-08T15:01:29;13.30;81.20
22337;DHT22;14992;50.844;4.418;2024-03-08T15:04:00;13.40;80.80
22337;DHT22;14992;50.844;4.418;2024-03-08T15:06:36;13.40;79.80
22337;DHT22;14992;50.844;4.418;2024-03-08T15:09:06;13.40;79.20
22337;DHT22;14992;50.844;4.418;2024-03-08T15:11:39;13.40;79.30
22337;DHT22;14992;50.844;4.418;2024-03-08T15:14:11;13.30;79.40
22337;DHT22;14992;50.844;4.418;2024-03-08T15:16:41;13.30;79.50
22337;DHT22;14992;50.844;4.418;2024-03-08T15:19:10;13.20;79.90
22337;DHT22;14992;50.844;4.418;2024-03-08T15:21:42;13.20;80.30
22337;DHT22;14992;50.844;4.418;2024-03-08T15:24:13;13.30;80.20
22337;DHT22;14992;50.844;4.418;2024-03-08T15:26:48;13.30;79.80
22337;DHT22;14992;50.844;4.418;2024-03-08T15:29:20;13.20;80.10
22337;DHT22;14992;50.844;4.418;2024-03-08T15:31:54;13.10;80.90
22337;DHT22;14992;50.844;4.418;2024-03-08T15:34:23;13.20;81.70
22337;DHT22;14992;50.844;4.418;2024-03-08T15:36:53;13.20;81.50
22337;DHT22;14992;50.844;4.418;2024-03-08T15:39:25;13.20;81.90
22337;DHT22;14992;50.844;4.418;2024-03-08T15:41:54;13.20;81.20
22337;DHT22;14992;50.844;4.418;2024-03-08T15:44:24;13.20;81.40
22337;DHT22;14992;50.844;4.418;2024-03-08T15:46:55;13.20;81.70
22337;DHT22;14992;50.844;4.418;2024-03-08T15:49:24;13.30;81.50
22337;DHT22;14992;50.844;4.418;2024-03-08T15:51:54;13.30;81.60
22337;DHT22;14992;50.844;4.418;2024-03-08T15:54:23;13.20;81.10
22337;DHT22;14992;50.844;4.418;2024-03-08T15:56:52;13.30;81.30
22337;DHT22;14992;50.844;4.418;2024-03-08T15:59:22;13.20;80.70
22337;DHT22;14992;50.844;4.418;2024-03-08T16:01:52;13.20;80.90